Accueil
METAR-TAF:

METAR-TAF

Aéroports :

Brive-la-Gaillarde, France

Aéroport de Brive-Vallée de la Dordogne

latitude: 45-02-28N, longitude: 001-28-59E, altitude: 311 m

Observation

Le bulletin a été fait il y a 33 minutes, à 03:30 UTC
Vent 2 kt de direction variable
Température -3°C
Humidité 93%
Pression 1010 hPa
Visibilité: 5000 m
brume

METAR: LFSL 250330Z AUTO VRB02KT 5000 BR NSC M03/M04 Q1010 TEMPO 2000

Heure: 05:03 (04:03 UTC)

Prévision

Le bulletin a été fait il y a 2 heures et 3 minutes, à 02:00 UTC
Prévision valable du 25 à 03 UTC au 25 à 12 UTC
Vent 2 kt de direction variable
Visibilité: 4000 m
brume
Temporairement
du 25 à 03 UTC au 25 à 07 UTC
Visibilité: 2000 m
Evoluant progressivement
du 25 à 07 UTC au 25 à 09 UTC
Visibilité: 6000 m

TAF: LFSL 250200Z 2503/2512 VRB02KT 4000 BR NSC TEMPO 2503/2507 2000 BECMG 2507/2509 6000 NSW NSC

Observations et prévisions météorologiques de plus de 4000 aéroports (messages METAR et TAF).

Les stations disponibles sont représentées par des disques jaunes et rouges sur la carte.

Passer la souris dessus pour voir le nom de la station.

Cliquer dessus pour voir les observations et prévisions météorologiques.

Pour changer de carte: cliquez sur les boutons verts avec une croix noire pour zoomer, sur le bouton vert avec un tiret pour effectuer un zoom arrière, ou sur les flèches vertes pour les cartes adjacentes.


METAR-TAF: